Oxenhope, United Kingdom
Current Conditions -  °F | °C
As of 8:20 AM on Thursday 27 Nov 2014 (Local Time) from EGNM Reporting Station
Drizzle Drizzle  
Wind Chill: 43°   Ceiling: Unl
Heat Index: 43°   Visibility: 0.18mi
Dew Point: 43°   Wind: 3mph
Humidity: 100%   Direction: 40°NE
Pressure: 29.62"   Gusts: NA
Location:  53.81°N, 1.95°W
Report Text: EGNM 270820Z 04003KT 0300 R32/0375 -DZ FG VV/// 06/06 Q1003
Loading
Personal Weather Stations






























Interactive Weather Map New forecast layout! Learn more

10-Day Weather Forecast

Advertisements
Track Severe Weather on mobile